createdAt,value
2023-04-13T00:01:38.562Z,13.10
2023-04-13T00:04:43.277Z,12.50
2023-04-13T00:07:45.737Z,12.30
2023-04-13T00:10:52.083Z,11.73
2023-04-13T00:13:55.449Z,10.60
2023-04-13T00:16:58.006Z,13.77
2023-04-13T00:20:00.692Z,11.90
2023-04-13T00:23:03.412Z,12.18
2023-04-13T00:26:05.981Z,11.80
2023-04-13T00:29:08.471Z,12.30
2023-04-13T00:32:11.462Z,12.27
2023-04-13T00:35:19.367Z,11.68
2023-04-13T00:38:24.225Z,12.60
2023-04-13T00:41:28.829Z,11.25
2023-04-13T00:44:30.992Z,11.70
2023-04-13T00:47:36.971Z,10.32
2023-04-13T00:50:40.248Z,11.13
2023-04-13T00:53:43.470Z,10.50
2023-04-13T00:56:45.738Z,11.57
2023-04-13T00:59:49.613Z,10.63
2023-04-13T01:02:53.962Z,12.30
2023-04-13T01:06:07.353Z,12.15
2023-04-13T01:09:15.458Z,12.38
2023-04-13T01:12:19.663Z,13.50
2023-04-13T01:15:23.794Z,12.70
2023-04-13T01:18:27.849Z,10.52
2023-04-13T01:21:32.999Z,10.80
2023-04-13T01:24:46.869Z,11.40
2023-04-13T01:27:55.567Z,11.32
2023-04-13T01:30:58.843Z,11.23
2023-04-13T01:34:02.260Z,10.63
2023-04-13T01:37:04.454Z,12.10
2023-04-13T01:40:13.847Z,11.32
2023-04-13T01:43:25.289Z,10.43
2023-04-13T01:46:46.571Z,10.27
2023-04-13T01:50:28.478Z,11.35
2023-04-13T01:53:43.170Z,10.95
2023-04-13T01:56:49.400Z,12.38
2023-04-13T01:59:52.168Z,10.65
2023-04-13T02:02:56.659Z,11.25
2023-04-13T02:05:58.945Z,10.75
2023-04-13T02:09:01.506Z,10.45
2023-04-13T02:12:03.765Z,12.27
2023-04-13T02:15:06.894Z,10.07
2023-04-13T02:18:12.267Z,11.60
2023-04-13T02:21:15.031Z,10.68
2023-04-13T02:24:17.238Z,9.35
2023-04-13T02:27:20.512Z,11.13
2023-04-13T02:30:23.623Z,10.38
2023-04-13T02:33:30.412Z,10.60
2023-04-13T02:36:33.167Z,12.27
2023-04-13T02:42:44.232Z,9.95
2023-04-13T02:45:47.451Z,10.07
2023-04-13T02:48:51.648Z,10.85
2023-04-13T02:51:54.298Z,10.95
2023-04-13T02:55:06.985Z,10.15
2023-04-13T02:58:35.585Z,11.18
2023-04-13T03:01:43.546Z,10.68
2023-04-13T03:04:47.773Z,11.02
2023-04-13T03:07:51.236Z,10.05
2023-04-13T03:10:54.966Z,10.88
2023-04-13T03:13:59.239Z,10.30
2023-04-13T03:17:01.898Z,10.75
2023-04-13T03:20:13.558Z,11.25
2023-04-13T03:23:23.833Z,10.93
2023-04-13T03:26:27.397Z,9.43
2023-04-13T03:29:32.476Z,11.48
2023-04-13T03:32:34.916Z,10.35
2023-04-13T03:35:37.153Z,10.32
2023-04-13T03:38:43.198Z,11.35
2023-04-13T03:41:46.265Z,13.57
2023-04-13T03:44:48.301Z,11.43
2023-04-13T03:47:51.942Z,11.80
2023-04-13T03:50:57.500Z,10.70
2023-04-13T03:54:06.872Z,12.25
2023-04-13T03:57:10.204Z,9.73
2023-04-13T04:00:14.473Z,12.05
2023-04-13T04:03:25.876Z,11.40
2023-04-13T04:06:39.515Z,11.00
2023-04-13T04:09:46.701Z,11.90
2023-04-13T04:12:51.880Z,11.43
2023-04-13T04:15:54.842Z,10.07
2023-04-13T04:18:58.382Z,11.68
2023-04-13T04:22:30.236Z,10.43
2023-04-13T04:25:34.795Z,9.65
2023-04-13T04:28:40.375Z,12.15
2023-04-13T04:31:46.203Z,11.00
2023-04-13T04:34:53.079Z,10.02
2023-04-13T04:37:58.235Z,10.43
2023-04-13T04:41:02.366Z,9.98
2023-04-13T04:44:08.973Z,11.35
2023-04-13T04:47:20.084Z,10.02
2023-04-13T04:50:50.602Z,11.18
2023-04-13T04:53:58.093Z,10.15
2023-04-13T04:57:10.568Z,11.90
2023-04-13T05:00:18.184Z,10.80
2023-04-13T05:03:34.337Z,10.95
2023-04-13T05:07:04.268Z,10.35
2023-04-13T05:10:11.793Z,10.05
2023-04-13T05:13:19.388Z,9.00
2023-04-13T05:16:31.969Z,9.70
2023-04-13T05:19:40.125Z,8.68
2023-04-13T05:22:51.088Z,9.27
2023-04-13T05:25:58.790Z,9.30
2023-04-13T05:29:04.922Z,9.70
2023-04-13T05:32:10.713Z,10.63
2023-04-13T05:35:13.318Z,9.50
2023-04-13T05:38:46.230Z,8.75
2023-04-13T05:41:51.402Z,10.18
2023-04-13T05:44:55.496Z,10.15
2023-04-13T05:47:57.774Z,10.00
2023-04-13T05:51:03.892Z,11.68
2023-04-13T05:54:14.015Z,12.52
2023-04-13T05:57:23.295Z,10.77
2023-04-13T06:00:28.835Z,11.23
2023-04-13T06:03:39.037Z,10.90
2023-04-13T06:06:45.361Z,9.50
2023-04-13T06:09:52.440Z,9.07
2023-04-13T06:12:55.806Z,10.98
2023-04-13T06:15:58.296Z,10.13
2023-04-13T06:19:02.405Z,8.55
2023-04-13T06:22:08.363Z,10.97
2023-04-13T06:25:14.141Z,10.77
2023-04-13T06:28:19.188Z,10.55
2023-04-13T06:31:28.039Z,8.88
2023-04-13T06:37:45.518Z,10.25
2023-04-13T06:40:52.791Z,10.35
2023-04-13T06:43:57.040Z,10.40
2023-04-13T06:47:09.295Z,11.32
2023-04-13T06:50:14.290Z,10.38
2023-04-13T06:53:18.592Z,10.77
2023-04-13T06:56:21.719Z,10.85
2023-04-13T06:59:32.180Z,10.18
2023-04-13T07:02:43.592Z,9.63
2023-04-13T07:05:48.546Z,9.38
2023-04-13T07:08:53.764Z,9.50
2023-04-13T07:12:03.955Z,9.88
2023-04-13T07:15:18.095Z,12.23
2023-04-13T07:18:22.674Z,11.35
2023-04-13T07:21:30.032Z,9.63
2023-04-13T07:24:38.647Z,9.05
2023-04-13T07:27:44.771Z,9.85
2023-04-13T07:30:47.802Z,8.20
2023-04-13T07:33:51.143Z,10.93
2023-04-13T07:36:58.769Z,9.13
2023-04-13T07:40:01.208Z,8.43
2023-04-13T07:43:06.502Z,10.27
2023-04-13T07:46:14.223Z,9.00
2023-04-13T07:49:20.548Z,9.75
2023-04-13T07:52:23.330Z,9.88
2023-04-13T07:55:28.251Z,6.82
2023-04-13T07:58:31.496Z,7.85
2023-04-13T08:01:37.335Z,7.25
2023-04-13T08:04:40.252Z,6.90
2023-04-13T08:07:49.240Z,7.78
2023-04-13T08:10:52.173Z,6.38
2023-04-13T08:14:24.231Z,8.40
2023-04-13T08:18:41.660Z,7.57
2023-04-13T08:21:53.986Z,7.97
2023-04-13T08:24:58.133Z,6.55
2023-04-13T08:28:05.615Z,7.97
2023-04-13T08:31:13.308Z,8.50
2023-04-13T08:34:23.653Z,8.23
2023-04-13T08:37:29.864Z,7.43
2023-04-13T08:40:38.673Z,7.53
2023-04-13T08:43:47.023Z,6.60
2023-04-13T08:46:52.579Z,5.72
2023-04-13T08:50:02.868Z,6.40
2023-04-13T08:53:18.447Z,6.53
2023-04-13T08:56:31.049Z,5.85
2023-04-13T08:59:43.847Z,6.03
2023-04-13T09:03:03.915Z,6.38
2023-04-13T09:06:12.772Z,6.68
2023-04-13T09:09:15.728Z,8.05
2023-04-13T09:12:18.267Z,5.25
2023-04-13T09:15:21.060Z,5.40
2023-04-13T09:18:50.875Z,4.57
2023-04-13T09:31:11.191Z,5.00
2023-04-13T09:34:14.853Z,5.07
2023-04-13T09:37:18.861Z,5.28
2023-04-13T09:40:22.814Z,5.05
2023-04-13T09:43:36.891Z,4.40
2023-04-13T09:46:40.230Z,5.22
2023-04-13T09:49:44.024Z,3.95
2023-04-13T09:52:51.621Z,5.78
2023-04-13T09:56:00.552Z,6.50
2023-04-13T09:59:02.805Z,8.13
2023-04-13T10:02:06.191Z,6.45
2023-04-13T10:05:13.400Z,6.18
2023-04-13T10:08:21.655Z,6.82
2023-04-13T10:11:29.976Z,6.57
2023-04-13T10:14:36.267Z,5.35
2023-04-13T10:18:19.949Z,4.75
2023-04-13T10:21:22.582Z,6.40
2023-04-13T10:24:25.673Z,6.00
2023-04-13T10:27:28.566Z,5.60
2023-04-13T10:30:31.061Z,5.20
2023-04-13T10:33:34.257Z,5.70
2023-04-13T10:36:47.416Z,7.20
2023-04-13T10:40:00.939Z,5.30
2023-04-13T10:43:08.724Z,6.13
2023-04-13T10:46:16.174Z,6.55
2023-04-13T10:49:18.408Z,5.43
2023-04-13T10:52:21.478Z,8.88
2023-04-13T10:55:44.997Z,6.68
2023-04-13T10:58:56.430Z,6.47
2023-04-13T11:02:09.039Z,6.00
2023-04-13T11:05:20.895Z,6.20
2023-04-13T11:08:28.918Z,5.38
2023-04-13T11:11:31.573Z,6.25
2023-04-13T11:14:36.240Z,6.15
2023-04-13T11:17:38.477Z,5.65
2023-04-13T11:20:43.815Z,5.40
2023-04-13T11:23:53.830Z,6.20
2023-04-13T11:26:58.192Z,6.65
2023-04-13T11:30:05.987Z,6.45
2023-04-13T11:33:10.126Z,5.93
2023-04-13T11:36:17.553Z,6.47
2023-04-13T11:39:22.565Z,4.63
2023-04-13T11:42:27.956Z,4.68
2023-04-13T11:45:30.656Z,5.43
2023-04-13T11:48:34.056Z,5.85
2023-04-13T11:51:41.280Z,5.47
2023-04-13T11:54:44.917Z,4.97
2023-04-13T11:57:58.860Z,5.57
2023-04-13T12:01:14.045Z,6.95
2023-04-13T12:04:20.112Z,6.43
2023-04-13T12:07:23.716Z,5.35
2023-04-13T12:10:43.558Z,5.28
2023-04-13T12:14:07.279Z,4.43
2023-04-13T12:20:21.304Z,4.75
2023-04-13T12:23:27.919Z,4.95
2023-04-13T12:29:41.658Z,6.60
2023-04-13T12:32:54.751Z,5.53
2023-04-13T12:35:57.623Z,5.72
2023-04-13T12:39:01.271Z,5.70
2023-04-13T12:42:03.882Z,7.57
2023-04-13T12:45:11.377Z,7.35
2023-04-13T12:48:13.510Z,6.43
2023-04-13T12:51:15.827Z,6.03
2023-04-13T12:54:18.429Z,6.50
2023-04-13T12:57:20.485Z,5.50
2023-04-13T13:00:36.019Z,5.15
2023-04-13T13:03:39.199Z,5.78
2023-04-13T13:13:57.465Z,9.45
2023-04-13T13:17:01.274Z,5.47
2023-04-13T13:20:27.892Z,6.38
2023-04-13T13:23:30.411Z,5.53
2023-04-13T13:27:00.301Z,5.78
2023-04-13T13:30:05.193Z,6.35
2023-04-13T13:33:08.517Z,5.95
2023-04-13T13:36:14.652Z,5.90
2023-04-13T13:39:23.560Z,6.63
2023-04-13T13:45:43.047Z,5.38
2023-04-13T13:48:46.605Z,7.07
2023-04-13T13:52:13.427Z,5.47
2023-04-13T13:55:23.035Z,4.88
2023-04-13T13:58:25.869Z,5.60
2023-04-13T14:01:28.443Z,4.65
2023-04-13T14:04:36.456Z,5.82
2023-04-13T14:07:44.813Z,5.15
2023-04-13T14:10:49.604Z,7.03
2023-04-13T14:13:55.672Z,5.65
2023-04-13T14:17:07.836Z,8.25
2023-04-13T14:20:12.286Z,5.70
2023-04-13T14:23:14.669Z,4.85
2023-04-13T14:26:21.055Z,7.07
2023-04-13T14:29:24.470Z,6.00
2023-04-13T14:32:29.934Z,5.15
2023-04-13T14:35:32.701Z,4.43
2023-04-13T14:38:35.472Z,4.00
2023-04-13T14:41:39.262Z,3.92
2023-04-13T14:44:42.120Z,5.55
2023-04-13T14:47:45.263Z,6.60
2023-04-13T14:50:49.735Z,6.00
2023-04-13T14:53:56.581Z,5.30
2023-04-13T14:57:03.470Z,6.05
2023-04-13T15:00:39.244Z,7.50
2023-04-13T15:03:41.845Z,4.35
2023-04-13T15:06:47.927Z,6.50
2023-04-13T15:09:53.821Z,4.55
2023-04-13T15:12:56.951Z,4.53
2023-04-13T15:15:59.290Z,5.57
2023-04-13T15:19:01.967Z,5.22
2023-04-13T15:22:04.465Z,4.95
2023-04-13T15:25:07.130Z,6.82
2023-04-13T15:28:11.268Z,6.63
2023-04-13T15:31:15.987Z,6.60
2023-04-13T15:34:18.129Z,6.45
2023-04-13T15:37:20.548Z,6.43
2023-04-13T15:40:27.665Z,7.32
2023-04-13T15:43:30.549Z,6.43
2023-04-13T15:46:32.869Z,6.32
2023-04-13T15:49:37.140Z,5.13
2023-04-13T15:52:40.012Z,5.63
2023-04-13T15:55:43.129Z,8.38
2023-04-13T15:58:47.512Z,7.55
2023-04-13T16:01:50.552Z,6.47
2023-04-13T16:04:54.178Z,6.57
2023-04-13T16:07:56.745Z,6.72
2023-04-13T16:11:02.570Z,7.80
2023-04-13T16:14:07.557Z,5.88
2023-04-13T16:17:10.551Z,8.45
2023-04-13T16:20:15.418Z,8.30
2023-04-13T16:23:18.989Z,7.32
2023-04-13T16:26:23.302Z,5.63
2023-04-13T16:29:27.244Z,5.38
2023-04-13T16:32:33.964Z,5.57
2023-04-13T16:35:37.016Z,5.70
2023-04-13T16:38:43.810Z,5.55
2023-04-13T16:41:48.537Z,5.63
2023-04-13T16:44:50.643Z,5.43
2023-04-13T16:47:53.815Z,6.05
2023-04-13T16:51:02.693Z,5.70
2023-04-13T16:54:18.317Z,8.93
2023-04-13T16:57:20.857Z,8.30
2023-04-13T17:00:23.357Z,6.55
2023-04-13T17:03:54.858Z,11.75
2023-04-13T17:07:07.460Z,7.75
2023-04-13T17:10:15.188Z,10.90
2023-04-13T17:13:26.175Z,11.20
2023-04-13T17:16:38.018Z,9.85
2023-04-13T17:19:42.009Z,9.70
2023-04-13T17:22:48.644Z,10.73
2023-04-13T17:25:56.803Z,15.90
2023-04-13T17:29:02.545Z,16.38
2023-04-13T17:32:06.205Z,15.60
2023-04-13T17:35:11.456Z,18.00
2023-04-13T17:38:23.260Z,12.55
2023-04-13T17:41:27.605Z,11.32
2023-04-13T17:44:35.257Z,13.30
2023-04-13T17:47:40.436Z,12.93
2023-04-13T17:50:42.626Z,10.77
2023-04-13T17:53:44.810Z,13.80
2023-04-13T17:56:47.972Z,12.10
2023-04-13T17:59:50.048Z,13.18
2023-04-13T18:02:52.869Z,10.82
2023-04-13T18:05:56.109Z,12.80
2023-04-13T18:08:58.504Z,13.20
2023-04-13T18:12:00.994Z,13.82
2023-04-13T18:15:03.655Z,14.45
2023-04-13T18:18:06.138Z,15.65
2023-04-13T18:21:08.494Z,16.55
2023-04-13T18:24:10.992Z,19.10
2023-04-13T18:42:40.934Z,17.92
2023-04-13T18:45:48.640Z,16.35
2023-04-13T18:48:55.091Z,18.38
2023-04-13T18:51:57.153Z,19.52
2023-04-13T18:54:59.526Z,17.58
2023-04-13T18:58:02.995Z,18.45
2023-04-13T19:01:55.372Z,18.85
2023-04-13T19:04:58.717Z,18.35
2023-04-13T19:08:04.046Z,18.88
2023-04-13T19:12:03.868Z,18.95
2023-04-13T19:15:10.271Z,20.05
2023-04-13T19:18:12.760Z,19.10
2023-04-13T19:21:40.973Z,20.73
2023-04-13T19:24:43.934Z,18.65
2023-04-13T19:32:11.073Z,16.92
2023-04-13T19:45:25.558Z,23.40
2023-04-13T19:49:13.031Z,19.23
2023-04-13T19:52:59.684Z,20.98
2023-04-13T19:56:30.776Z,21.80
2023-04-13T20:07:52.400Z,19.92
2023-04-13T20:11:01.364Z,20.40
2023-04-13T20:17:16.444Z,23.77
2023-04-13T20:20:26.967Z,24.90
2023-04-13T20:23:35.870Z,22.05
2023-04-13T20:26:38.165Z,20.25
2023-04-13T20:29:42.009Z,20.10
2023-04-13T20:32:50.152Z,18.83
2023-04-13T20:35:55.034Z,19.85
2023-04-13T20:39:03.066Z,21.52
2023-04-13T20:42:09.546Z,22.35
2023-04-13T20:45:15.178Z,21.63
2023-04-13T20:51:49.906Z,19.02
2023-04-13T20:55:14.870Z,18.25
2023-04-13T20:58:18.942Z,19.73
2023-04-13T21:01:30.489Z,20.15
2023-04-13T21:04:35.092Z,22.58
2023-04-13T21:07:42.176Z,18.73
2023-04-13T21:10:47.879Z,18.80
2023-04-13T21:13:52.452Z,19.45
2023-04-13T21:16:55.635Z,20.67
2023-04-13T21:19:57.997Z,20.52
2023-04-13T21:23:01.426Z,18.85
2023-04-13T21:26:04.815Z,19.95
2023-04-13T21:29:16.741Z,21.07
2023-04-13T21:32:18.998Z,18.73
2023-04-13T21:35:21.182Z,17.40
2023-04-13T21:38:23.329Z,17.23
2023-04-13T21:41:25.380Z,18.45
2023-04-13T21:44:29.892Z,14.88
2023-04-13T21:47:32.524Z,17.25
2023-04-13T21:50:34.533Z,15.57
2023-04-13T21:53:37.196Z,15.15
2023-04-13T21:56:39.271Z,15.13
2023-04-13T21:59:41.455Z,14.65
2023-04-13T22:02:43.922Z,13.77
2023-04-13T22:05:46.240Z,16.88
2023-04-13T22:08:48.337Z,16.73
2023-04-13T22:11:51.582Z,17.38
2023-04-13T22:14:54.329Z,17.45
2023-04-13T22:17:56.754Z,18.90
2023-04-13T22:21:02.365Z,18.95
2023-04-13T22:24:04.612Z,18.77
2023-04-13T22:27:06.863Z,18.95
2023-04-13T22:30:09.476Z,18.40
2023-04-13T22:33:11.615Z,18.90
2023-04-13T22:36:19.561Z,20.90
2023-04-13T22:39:22.017Z,18.35
2023-04-13T22:42:24.168Z,19.42
2023-04-13T22:45:26.405Z,17.98
2023-04-13T22:48:29.302Z,18.17
2023-04-13T22:51:38.769Z,18.85
2023-04-13T22:54:40.863Z,17.60
2023-04-13T22:57:43.047Z,17.48
2023-04-13T23:00:45.175Z,18.95
2023-04-13T23:03:47.523Z,16.83
2023-04-13T23:06:53.789Z,17.25
2023-04-13T23:09:56.168Z,16.70
2023-04-13T23:12:59.145Z,15.20
2023-04-13T23:16:01.642Z,15.82
2023-04-13T23:19:03.941Z,17.38
2023-04-13T23:22:06.210Z,16.80
2023-04-13T23:25:08.667Z,18.42
2023-04-13T23:28:10.812Z,17.45
2023-04-13T23:31:13.309Z,18.60
2023-04-13T23:34:15.559Z,18.13
2023-04-13T23:37:17.574Z,18.48
2023-04-13T23:40:19.732Z,16.35
2023-04-13T23:43:22.838Z,17.38
2023-04-13T23:46:25.313Z,19.08
2023-04-13T23:49:27.345Z,17.17
2023-04-13T23:52:29.450Z,19.55
2023-04-13T23:55:31.428Z,18.33
2023-04-13T23:58:33.562Z,18.52
